Cloverdale, Alabama
Current Conditions -  °F | °C
As of 7:53 AM on Saturday 20 Dec 2014 (Local Time) from KMSL Reporting Station
Haze Haze  
Wind Chill: 33°   Ceiling: Unl
Heat Index: 37°   Visibility: 6mi
Dew Point: 28°   Wind: 5mph
Humidity: 70%   Direction: 50°NE
Pressure: 30.27"   Gusts: NA
Location:  34.94°N, 87.77°W
Report Text: KMSL 201353Z AUTO 05004KT 6SM HZ CLR 03/M02 A3027 RMK AO2 SLP253 T00281022
Loading
Personal Weather Stations






























Interactive Weather Map New forecast layout! Learn more

10-Day Weather Forecast

Advertisements
Track Severe Weather on mobile